TAPA Airport Information

Runway Information
Runway 07 Length 9003 ft width 148 ft
Elevation 58 ft Threshold 656 ft Heading 58
Runway 25 Length 9003 ft Width 148 ft
Elevation 17 ft Threshold 0 ft Heading 238
Airport Frequencies
Type APP Name APP Frequency 119.1 MHZ
Type ATIS Name ATIS Frequency 114.5 MHZ
Type GND Name GND Frequency 121.9 MHZ
Type RDO Name ANTIQUA RD Frequency 26.48 MHZ
Type TWR Name TWR Frequency 118.2 MHZ
Airport Navaids
Type VOR-DME Name V C Bird Frequency 114500 KHZ
Type NDB Name V C Bird Frequency 351 KHZ
Type NDB Name V C Bird Frequency 369 KHZ
Airport Weather Information & NOTAM
ADDS - METARS form results

(0302 UTC 17 November 2018)
Data provider http://aviationweather.gov/metar/data/
 
Forecast for: TAPA (COOLIDGE/ANTIGUA, AG)
Text: TAF TAPA 162300Z 1700/1724 10015KT 9999 SCT020
Forecast period: 0000 UTC 17 November 2018 to 0000 UTC 18 November 2018
Forecast type: FROM: standard forecast or significant change
Winds: from the E (100 degrees) at 17 MPH (15 knots; 7.7 m/s)
Visibility: 6 or more miles 10+ km)
Ceiling: at least 12,000 feet AGL
Clouds: scattered clouds at 2000 feet AGL
Weather: no significant weather forecast for this period